sensor_id;sensor_type;location;lat;lon;timestamp;pressure;altitude;pressure_sealevel;temperature;humidity
43691;BME280;29293;52.190;21.226;2022-12-22T00:10:40;99937.21;;;1.19;100.00
43691;BME280;29293;52.190;21.226;2022-12-22T00:26:08;99922.88;;;1.05;100.00
43691;BME280;29293;52.190;21.226;2022-12-22T00:41:33;99921.48;;;1.00;100.00
43691;BME280;29293;52.190;21.226;2022-12-22T00:56:59;99915.06;;;0.98;100.00
43691;BME280;29293;52.190;21.226;2022-12-22T01:12:25;99911.98;;;0.99;100.00
43691;BME280;29293;52.190;21.226;2022-12-22T01:27:51;99902.14;;;0.99;100.00
43691;BME280;29293;52.190;21.226;2022-12-22T01:43:20;99902.88;;;0.99;100.00
43691;BME280;29293;52.190;21.226;2022-12-22T01:58:47;99904.92;;;0.98;100.00
43691;BME280;29293;52.190;21.226;2022-12-22T02:22:03;99893.71;;;1.06;100.00
43691;BME280;29293;52.190;21.226;2022-12-22T02:37:38;99889.94;;;1.00;100.00
43691;BME280;29293;52.190;21.226;2022-12-22T02:53:06;99890.26;;;1.01;100.00
43691;BME280;29293;52.190;21.226;2022-12-22T03:08:31;99899.36;;;1.03;100.00
43691;BME280;29293;52.190;21.226;2022-12-22T03:23:55;99896.88;;;1.02;100.00
43691;BME280;29293;52.190;21.226;2022-12-22T03:39:20;99891.02;;;1.03;100.00
43691;BME280;29293;52.190;21.226;2022-12-22T03:54:30;99888.62;;;1.03;100.00
43691;BME280;29293;52.190;21.226;2022-12-22T04:09:37;99889.20;;;1.05;100.00
43691;BME280;29293;52.190;21.226;2022-12-22T04:25:06;99877.52;;;1.04;100.00
43691;BME280;29293;52.190;21.226;2022-12-22T04:40:14;99867.47;;;1.07;100.00
43691;BME280;29293;52.190;21.226;2022-12-22T04:55:21;99853.23;;;1.02;100.00
43691;BME280;29293;52.190;21.226;2022-12-22T05:10:28;99838.25;;;1.02;100.00
43691;BME280;29293;52.190;21.226;2022-12-22T05:25:36;99846.88;;;1.10;100.00
43691;BME280;29293;52.190;21.226;2022-12-22T05:40:43;99828.20;;;1.10;100.00
43691;BME280;29293;52.190;21.226;2022-12-22T05:55:50;99827.34;;;1.11;100.00
43691;BME280;29293;52.190;21.226;2022-12-22T06:10:58;99836.02;;;1.14;100.00
43691;BME280;29293;52.190;21.226;2022-12-22T06:26:06;99853.84;;;1.23;100.00
43691;BME280;29293;52.190;21.226;2022-12-22T06:41:13;99861.62;;;1.21;100.00
43691;BME280;29293;52.190;21.226;2022-12-22T06:56:20;99869.75;;;1.25;100.00
43691;BME280;29293;52.190;21.226;2022-12-22T07:11:27;99870.64;;;1.27;100.00
43691;BME280;29293;52.190;21.226;2022-12-22T07:26:34;99864.44;;;1.30;100.00
43691;BME280;29293;52.190;21.226;2022-12-22T07:41:41;99852.52;;;1.32;100.00
43691;BME280;29293;52.190;21.226;2022-12-22T07:57:06;99840.77;;;1.36;100.00
43691;BME280;29293;52.190;21.226;2022-12-22T08:12:13;99829.70;;;1.47;100.00
43691;BME280;29293;52.190;21.226;2022-12-22T08:27:23;99824.17;;;1.70;100.00
43691;BME280;29293;52.190;21.226;2022-12-22T08:42:33;99798.77;;;1.80;100.00
43691;BME280;29293;52.190;21.226;2022-12-22T08:57:40;99792.73;;;1.82;100.00
43691;BME280;29293;52.190;21.226;2022-12-22T09:12:47;99786.98;;;1.85;100.00
43691;BME280;29293;52.190;21.226;2022-12-22T09:27:55;99772.73;;;1.95;100.00
43691;BME280;29293;52.190;21.226;2022-12-22T09:43:03;99778.33;;;2.04;100.00
43691;BME280;29293;52.190;21.226;2022-12-22T09:58:20;99761.91;;;2.26;100.00
43691;BME280;29293;52.190;21.226;2022-12-22T10:13:30;99726.90;;;2.40;100.00
43691;BME280;29293;52.190;21.226;2022-12-22T10:28:39;99710.05;;;2.60;100.00
43691;BME280;29293;52.190;21.226;2022-12-22T10:43:49;99693.59;;;2.76;100.00
43691;BME280;29293;52.190;21.226;2022-12-22T10:59:12;99671.52;;;2.79;100.00
43691;BME280;29293;52.190;21.226;2022-12-22T11:14:29;99649.88;;;2.81;100.00
43691;BME280;29293;52.190;21.226;2022-12-22T11:29:59;99621.31;;;2.84;100.00
43691;BME280;29293;52.190;21.226;2022-12-22T11:45:18;99606.09;;;3.03;100.00
43691;BME280;29293;52.190;21.226;2022-12-22T12:00:36;99592.14;;;3.20;100.00
43691;BME280;29293;52.190;21.226;2022-12-22T12:15:48;99579.86;;;3.18;100.00
43691;BME280;29293;52.190;21.226;2022-12-22T12:30:59;99552.27;;;3.14;100.00
43691;BME280;29293;52.190;21.226;2022-12-22T13:01:55;99537.35;;;2.95;100.00
43691;BME280;29293;52.190;21.226;2022-12-22T13:17:39;99532.63;;;3.03;100.00
43691;BME280;29293;52.190;21.226;2022-12-22T13:32:53;99521.92;;;2.92;100.00
43691;BME280;29293;52.190;21.226;2022-12-22T13:48:06;99529.45;;;2.81;100.00
43691;BME280;29293;52.190;21.226;2022-12-22T14:03:18;99515.34;;;2.62;100.00
43691;BME280;29293;52.190;21.226;2022-12-22T14:18:26;99500.23;;;2.52;100.00
43691;BME280;29293;52.190;21.226;2022-12-22T14:33:34;99486.71;;;2.44;100.00
43691;BME280;29293;52.190;21.226;2022-12-22T14:48:46;99467.10;;;2.33;100.00
43691;BME280;29293;52.190;21.226;2022-12-22T15:04:15;99435.04;;;2.20;100.00
43691;BME280;29293;52.190;21.226;2022-12-22T15:19:23;99433.75;;;2.19;100.00
43691;BME280;29293;52.190;21.226;2022-12-22T15:34:33;99430.83;;;2.25;100.00
43691;BME280;29293;52.190;21.226;2022-12-22T15:49:40;99429.57;;;2.31;100.00
43691;BME280;29293;52.190;21.226;2022-12-22T16:04:47;99410.86;;;2.27;100.00
43691;BME280;29293;52.190;21.226;2022-12-22T16:19:55;99395.63;;;2.14;100.00
43691;BME280;29293;52.190;21.226;2022-12-22T16:35:14;99372.33;;;2.17;100.00
43691;BME280;29293;52.190;21.226;2022-12-22T16:50:25;99364.92;;;2.20;100.00
43691;BME280;29293;52.190;21.226;2022-12-22T17:05:38;99365.35;;;2.12;100.00
43691;BME280;29293;52.190;21.226;2022-12-22T17:20:47;99356.79;;;2.02;100.00
43691;BME280;29293;52.190;21.226;2022-12-22T17:35:56;99347.93;;;2.04;100.00
43691;BME280;29293;52.190;21.226;2022-12-22T17:51:04;99344.52;;;2.04;100.00
43691;BME280;29293;52.190;21.226;2022-12-22T18:06:12;99334.85;;;2.00;100.00
43691;BME280;29293;52.190;21.226;2022-12-22T18:21:19;99323.20;;;1.92;100.00
43691;BME280;29293;52.190;21.226;2022-12-22T18:36:29;99304.74;;;1.85;100.00
43691;BME280;29293;52.190;21.226;2022-12-22T18:51:37;99302.91;;;1.84;100.00
43691;BME280;29293;52.190;21.226;2022-12-22T19:06:44;99297.64;;;1.77;100.00
43691;BME280;29293;52.190;21.226;2022-12-22T19:21:51;99293.11;;;1.73;100.00
43691;BME280;29293;52.190;21.226;2022-12-22T19:36:59;99275.64;;;1.65;100.00
43691;BME280;29293;52.190;21.226;2022-12-22T19:52:07;99266.15;;;1.65;100.00
43691;BME280;29293;52.190;21.226;2022-12-22T20:07:15;99252.92;;;1.70;100.00
43691;BME280;29293;52.190;21.226;2022-12-22T20:22:23;99248.55;;;1.74;100.00
43691;BME280;29293;52.190;21.226;2022-12-22T20:37:30;99239.27;;;1.78;100.00
43691;BME280;29293;52.190;21.226;2022-12-22T20:52:40;99228.35;;;1.82;100.00
43691;BME280;29293;52.190;21.226;2022-12-22T21:07:48;99237.09;;;1.86;100.00
43691;BME280;29293;52.190;21.226;2022-12-22T21:22:55;99238.88;;;1.89;100.00
43691;BME280;29293;52.190;21.226;2022-12-22T21:38:02;99221.45;;;1.99;100.00
43691;BME280;29293;52.190;21.226;2022-12-22T21:53:10;99215.73;;;2.03;100.00
43691;BME280;29293;52.190;21.226;2022-12-22T22:08:18;99216.63;;;2.00;100.00
43691;BME280;29293;52.190;21.226;2022-12-22T22:23:25;99213.05;;;2.02;100.00
43691;BME280;29293;52.190;21.226;2022-12-22T22:38:32;99206.31;;;2.03;100.00
43691;BME280;29293;52.190;21.226;2022-12-22T22:53:39;99205.02;;;2.07;100.00
43691;BME280;29293;52.190;21.226;2022-12-22T23:08:48;99195.59;;;2.11;100.00
43691;BME280;29293;52.190;21.226;2022-12-22T23:23:56;99190.69;;;2.10;100.00
43691;BME280;29293;52.190;21.226;2022-12-22T23:39:02;99189.71;;;2.18;100.00
43691;BME280;29293;52.190;21.226;2022-12-22T23:54:09;99186.83;;;2.31;100.00
